sensor_id;sensor_type;location;lat;lon;timestamp;temperature;humidity
1367;DHT22;16877;48.810;9.282;2023-07-08T00:02:18;30.50;35.00
1367;DHT22;16877;48.810;9.282;2023-07-08T00:04:45;30.50;35.00
1367;DHT22;16877;48.810;9.282;2023-07-08T00:07:16;30.60;35.10
1367;DHT22;16877;48.810;9.282;2023-07-08T00:09:48;30.60;35.10
1367;DHT22;16877;48.810;9.282;2023-07-08T00:12:15;30.50;35.10
1367;DHT22;16877;48.810;9.282;2023-07-08T00:14:42;30.50;35.20
1367;DHT22;16877;48.810;9.282;2023-07-08T00:17:14;30.50;35.00
1367;DHT22;16877;48.810;9.282;2023-07-08T00:19:42;30.20;34.20
1367;DHT22;16877;48.810;9.282;2023-07-08T00:22:14;29.80;34.40
1367;DHT22;16877;48.810;9.282;2023-07-08T00:24:43;29.70;35.00
1367;DHT22;16877;48.810;9.282;2023-07-08T00:27:12;29.70;35.40
1367;DHT22;16877;48.810;9.282;2023-07-08T00:29:40;30.00;35.80
1367;DHT22;16877;48.810;9.282;2023-07-08T00:32:11;30.10;35.70
1367;DHT22;16877;48.810;9.282;2023-07-08T00:34:54;30.10;35.40
1367;DHT22;16877;48.810;9.282;2023-07-08T00:37:21;30.10;35.30
1367;DHT22;16877;48.810;9.282;2023-07-08T00:39:49;30.20;35.50
1367;DHT22;16877;48.810;9.282;2023-07-08T00:42:19;29.80;34.40
1367;DHT22;16877;48.810;9.282;2023-07-08T00:44:48;29.60;35.30
1367;DHT22;16877;48.810;9.282;2023-07-08T00:47:16;29.70;35.50
1367;DHT22;16877;48.810;9.282;2023-07-08T00:49:46;29.70;35.70
1367;DHT22;16877;48.810;9.282;2023-07-08T00:52:23;29.80;35.80
1367;DHT22;16877;48.810;9.282;2023-07-08T00:54:53;30.00;35.70
1367;DHT22;16877;48.810;9.282;2023-07-08T00:57:26;30.00;35.50
1367;DHT22;16877;48.810;9.282;2023-07-08T00:59:59;30.00;35.70
1367;DHT22;16877;48.810;9.282;2023-07-08T01:02:33;29.40;36.10
1367;DHT22;16877;48.810;9.282;2023-07-08T01:05:05;29.30;36.30
1367;DHT22;16877;48.810;9.282;2023-07-08T01:07:33;29.40;36.50
1367;DHT22;16877;48.810;9.282;2023-07-08T01:10:06;29.40;36.30
1367;DHT22;16877;48.810;9.282;2023-07-08T01:12:41;29.50;36.40
1367;DHT22;16877;48.810;9.282;2023-07-08T01:15:10;29.60;36.50
1367;DHT22;16877;48.810;9.282;2023-07-08T01:17:38;29.70;36.50
1367;DHT22;16877;48.810;9.282;2023-07-08T01:20:07;29.80;36.50
1367;DHT22;16877;48.810;9.282;2023-07-08T01:22:41;29.80;36.60
1367;DHT22;16877;48.810;9.282;2023-07-08T01:25:12;29.80;36.50
1367;DHT22;16877;48.810;9.282;2023-07-08T01:27:45;29.80;36.50
1367;DHT22;16877;48.810;9.282;2023-07-08T01:30:15;29.80;36.50
1367;DHT22;16877;48.810;9.282;2023-07-08T01:32:47;29.80;36.50
1367;DHT22;16877;48.810;9.282;2023-07-08T01:35:16;29.80;36.60
1367;DHT22;16877;48.810;9.282;2023-07-08T01:37:50;29.80;36.60
1367;DHT22;16877;48.810;9.282;2023-07-08T01:40:28;29.80;36.70
1367;DHT22;16877;48.810;9.282;2023-07-08T01:42:56;29.80;36.70
1367;DHT22;16877;48.810;9.282;2023-07-08T01:45:26;29.70;36.70
1367;DHT22;16877;48.810;9.282;2023-07-08T01:47:57;29.70;36.90
1367;DHT22;16877;48.810;9.282;2023-07-08T01:50:26;29.70;36.90
1367;DHT22;16877;48.810;9.282;2023-07-08T01:52:58;29.70;36.90
1367;DHT22;16877;48.810;9.282;2023-07-08T01:55:27;29.60;36.80
1367;DHT22;16877;48.810;9.282;2023-07-08T01:57:56;29.60;36.80
1367;DHT22;16877;48.810;9.282;2023-07-08T02:00:23;29.60;36.90
1367;DHT22;16877;48.810;9.282;2023-07-08T02:02:51;29.60;36.90
1367;DHT22;16877;48.810;9.282;2023-07-08T02:05:19;29.60;37.00
1367;DHT22;16877;48.810;9.282;2023-07-08T02:08:02;29.60;37.00
1367;DHT22;16877;48.810;9.282;2023-07-08T02:10:29;29.60;37.10
1367;DHT22;16877;48.810;9.282;2023-07-08T02:12:55;29.50;37.20
1367;DHT22;16877;48.810;9.282;2023-07-08T02:15:22;29.50;37.20
1367;DHT22;16877;48.810;9.282;2023-07-08T02:17:53;29.50;37.20
1367;DHT22;16877;48.810;9.282;2023-07-08T02:20:35;29.50;37.30
1367;DHT22;16877;48.810;9.282;2023-07-08T02:23:05;29.50;37.40
1367;DHT22;16877;48.810;9.282;2023-07-08T02:25:33;29.40;37.50
1367;DHT22;16877;48.810;9.282;2023-07-08T02:28:04;29.40;37.50
1367;DHT22;16877;48.810;9.282;2023-07-08T02:30:36;29.40;37.50
1367;DHT22;16877;48.810;9.282;2023-07-08T02:33:03;29.40;37.60
1367;DHT22;16877;48.810;9.282;2023-07-08T02:35:31;29.40;37.60
1367;DHT22;16877;48.810;9.282;2023-07-08T02:37:58;29.10;37.40
1367;DHT22;16877;48.810;9.282;2023-07-08T02:40:27;29.00;37.80
1367;DHT22;16877;48.810;9.282;2023-07-08T02:42:55;28.90;37.80
1367;DHT22;16877;48.810;9.282;2023-07-08T02:45:37;28.90;37.90
1367;DHT22;16877;48.810;9.282;2023-07-08T02:48:04;29.00;38.10
1367;DHT22;16877;48.810;9.282;2023-07-08T02:50:32;29.10;38.10
1367;DHT22;16877;48.810;9.282;2023-07-08T02:53:03;29.20;38.60
1367;DHT22;16877;48.810;9.282;2023-07-08T02:55:32;29.20;37.90
1367;DHT22;16877;48.810;9.282;2023-07-08T02:58:00;29.20;37.80
1367;DHT22;16877;48.810;9.282;2023-07-08T03:00:27;29.20;37.80
1367;DHT22;16877;48.810;9.282;2023-07-08T03:02:54;29.30;37.80
1367;DHT22;16877;48.810;9.282;2023-07-08T03:05:22;29.30;37.80
1367;DHT22;16877;48.810;9.282;2023-07-08T03:07:53;29.30;38.50
1367;DHT22;16877;48.810;9.282;2023-07-08T03:10:37;29.30;37.80
1367;DHT22;16877;48.810;9.282;2023-07-08T03:13:04;29.20;37.50
1367;DHT22;16877;48.810;9.282;2023-07-08T03:15:46;28.20;37.10
1367;DHT22;16877;48.810;9.282;2023-07-08T03:18:14;27.80;37.60
1367;DHT22;16877;48.810;9.282;2023-07-08T03:20:43;27.50;37.90
1367;DHT22;16877;48.810;9.282;2023-07-08T03:23:12;27.80;39.10
1367;DHT22;16877;48.810;9.282;2023-07-08T03:25:56;28.20;39.10
1367;DHT22;16877;48.810;9.282;2023-07-08T03:28:24;28.50;38.70
1367;DHT22;16877;48.810;9.282;2023-07-08T03:30:52;28.60;38.50
1367;DHT22;16877;48.810;9.282;2023-07-08T03:33:20;28.70;38.50
1367;DHT22;16877;48.810;9.282;2023-07-08T03:36:04;28.70;38.60
1367;DHT22;16877;48.810;9.282;2023-07-08T03:38:36;28.90;38.60
1367;DHT22;16877;48.810;9.282;2023-07-08T03:41:05;28.60;38.80
1367;DHT22;16877;48.810;9.282;2023-07-08T03:43:36;28.70;39.00
1367;DHT22;16877;48.810;9.282;2023-07-08T03:46:11;28.70;39.50
1367;DHT22;16877;48.810;9.282;2023-07-08T03:48:55;28.80;39.00
1367;DHT22;16877;48.810;9.282;2023-07-08T03:51:29;28.80;38.90
1367;DHT22;16877;48.810;9.282;2023-07-08T03:54:13;28.80;39.10
1367;DHT22;16877;48.810;9.282;2023-07-08T03:56:59;28.70;39.20
1367;DHT22;16877;48.810;9.282;2023-07-08T03:59:30;28.70;39.50
1367;DHT22;16877;48.810;9.282;2023-07-08T04:02:01;28.70;39.50
1367;DHT22;16877;48.810;9.282;2023-07-08T04:04:29;28.60;39.60
1367;DHT22;16877;48.810;9.282;2023-07-08T04:06:57;28.70;39.70
1367;DHT22;16877;48.810;9.282;2023-07-08T04:09:26;28.70;39.90
1367;DHT22;16877;48.810;9.282;2023-07-08T04:11:57;28.70;39.90
1367;DHT22;16877;48.810;9.282;2023-07-08T04:14:25;28.70;40.00
1367;DHT22;16877;48.810;9.282;2023-07-08T04:16:57;28.70;40.00
1367;DHT22;16877;48.810;9.282;2023-07-08T04:19:25;28.60;40.00
1367;DHT22;16877;48.810;9.282;2023-07-08T04:22:01;28.60;40.10
1367;DHT22;16877;48.810;9.282;2023-07-08T04:24:29;28.70;40.20
1367;DHT22;16877;48.810;9.282;2023-07-08T04:27:04;28.70;40.20
1367;DHT22;16877;48.810;9.282;2023-07-08T04:29:33;28.70;40.20
1367;DHT22;16877;48.810;9.282;2023-07-08T04:32:06;28.70;40.20
1367;DHT22;16877;48.810;9.282;2023-07-08T04:34:36;28.80;40.20
1367;DHT22;16877;48.810;9.282;2023-07-08T04:37:20;28.80;40.20
1367;DHT22;16877;48.810;9.282;2023-07-08T04:40:07;28.80;40.30
1367;DHT22;16877;48.810;9.282;2023-07-08T04:42:42;28.80;40.40
1367;DHT22;16877;48.810;9.282;2023-07-08T04:45:20;28.80;40.40
1367;DHT22;16877;48.810;9.282;2023-07-08T04:47:52;28.80;40.40
1367;DHT22;16877;48.810;9.282;2023-07-08T04:50:35;28.80;40.60
1367;DHT22;16877;48.810;9.282;2023-07-08T04:53:07;28.80;40.60
1367;DHT22;16877;48.810;9.282;2023-07-08T04:55:42;28.80;40.70
1367;DHT22;16877;48.810;9.282;2023-07-08T04:58:12;28.90;40.60
1367;DHT22;16877;48.810;9.282;2023-07-08T05:00:54;28.80;40.60
1367;DHT22;16877;48.810;9.282;2023-07-08T05:03:26;28.80;40.80
1367;DHT22;16877;48.810;9.282;2023-07-08T05:06:08;28.90;40.80
1367;DHT22;16877;48.810;9.282;2023-07-08T05:08:46;28.90;40.80
1367;DHT22;16877;48.810;9.282;2023-07-08T05:11:18;28.90;40.80
1367;DHT22;16877;48.810;9.282;2023-07-08T05:13:49;29.00;40.80
1367;DHT22;16877;48.810;9.282;2023-07-08T05:16:17;29.00;40.90
1367;DHT22;16877;48.810;9.282;2023-07-08T05:18:45;29.10;40.90
1367;DHT22;16877;48.810;9.282;2023-07-08T05:21:17;29.10;41.00
1367;DHT22;16877;48.810;9.282;2023-07-08T05:23:46;29.10;41.00
1367;DHT22;16877;48.810;9.282;2023-07-08T05:26:16;29.10;41.00
1367;DHT22;16877;48.810;9.282;2023-07-08T05:28:52;29.20;41.00
1367;DHT22;16877;48.810;9.282;2023-07-08T05:31:23;29.30;41.10
1367;DHT22;16877;48.810;9.282;2023-07-08T05:33:55;29.30;41.10
1367;DHT22;16877;48.810;9.282;2023-07-08T05:36:23;29.40;41.10
1367;DHT22;16877;48.810;9.282;2023-07-08T05:38:54;29.40;41.00
1367;DHT22;16877;48.810;9.282;2023-07-08T05:41:24;29.50;41.00
1367;DHT22;16877;48.810;9.282;2023-07-08T05:44:09;28.30;40.90
1367;DHT22;16877;48.810;9.282;2023-07-08T05:46:56;28.10;41.20
1367;DHT22;16877;48.810;9.282;2023-07-08T05:49:37;27.90;40.70
1367;DHT22;16877;48.810;9.282;2023-07-08T05:52:08;27.20;40.60
1367;DHT22;16877;48.810;9.282;2023-07-08T05:54:39;27.00;40.50
1367;DHT22;16877;48.810;9.282;2023-07-08T05:57:08;27.30;41.40
1367;DHT22;16877;48.810;9.282;2023-07-08T05:59:42;26.60;41.50
1367;DHT22;16877;48.810;9.282;2023-07-08T06:02:12;26.60;42.60
1367;DHT22;16877;48.810;9.282;2023-07-08T06:04:52;26.80;42.60
1367;DHT22;16877;48.810;9.282;2023-07-08T06:07:20;26.60;42.40
1367;DHT22;16877;48.810;9.282;2023-07-08T06:09:47;26.90;42.60
1367;DHT22;16877;48.810;9.282;2023-07-08T06:12:15;26.90;42.30
1367;DHT22;16877;48.810;9.282;2023-07-08T06:14:44;27.00;42.50
1367;DHT22;16877;48.810;9.282;2023-07-08T06:17:11;27.00;42.20
1367;DHT22;16877;48.810;9.282;2023-07-08T06:19:40;27.40;42.30
1367;DHT22;16877;48.810;9.282;2023-07-08T06:22:08;27.50;42.30
1367;DHT22;16877;48.810;9.282;2023-07-08T06:24:35;28.00;42.10
1367;DHT22;16877;48.810;9.282;2023-07-08T06:27:03;28.10;42.00
1367;DHT22;16877;48.810;9.282;2023-07-08T06:29:31;28.30;41.60
1367;DHT22;16877;48.810;9.282;2023-07-08T06:31:59;28.40;41.40
1367;DHT22;16877;48.810;9.282;2023-07-08T06:34:28;28.40;41.20
1367;DHT22;16877;48.810;9.282;2023-07-08T06:36:56;28.60;41.00
1367;DHT22;16877;48.810;9.282;2023-07-08T06:39:27;28.50;41.20
1367;DHT22;16877;48.810;9.282;2023-07-08T06:41:59;28.50;41.20
1367;DHT22;16877;48.810;9.282;2023-07-08T06:44:26;28.70;41.10
1367;DHT22;16877;48.810;9.282;2023-07-08T06:46:54;28.90;41.00
1367;DHT22;16877;48.810;9.282;2023-07-08T06:49:23;29.00;40.90
1367;DHT22;16877;48.810;9.282;2023-07-08T06:51:50;28.20;40.80
1367;DHT22;16877;48.810;9.282;2023-07-08T06:54:18;28.40;41.70
1367;DHT22;16877;48.810;9.282;2023-07-08T06:56:45;28.40;41.80
1367;DHT22;16877;48.810;9.282;2023-07-08T06:59:13;28.70;41.70
1367;DHT22;16877;48.810;9.282;2023-07-08T07:01:46;28.60;41.70
1367;DHT22;16877;48.810;9.282;2023-07-08T07:04:13;28.50;41.70
1367;DHT22;16877;48.810;9.282;2023-07-08T07:06:43;28.30;42.30
1367;DHT22;16877;48.810;9.282;2023-07-08T07:09:10;28.10;42.40
1367;DHT22;16877;48.810;9.282;2023-07-08T07:11:38;27.60;43.00
1367;DHT22;16877;48.810;9.282;2023-07-08T07:14:20;28.10;43.20
1367;DHT22;16877;48.810;9.282;2023-07-08T07:16:47;28.20;43.10
1367;DHT22;16877;48.810;9.282;2023-07-08T07:19:15;28.40;43.20
1367;DHT22;16877;48.810;9.282;2023-07-08T07:21:54;28.70;43.10
1367;DHT22;16877;48.810;9.282;2023-07-08T07:24:22;28.80;43.20
1367;DHT22;16877;48.810;9.282;2023-07-08T07:26:49;29.00;43.10
1367;DHT22;16877;48.810;9.282;2023-07-08T07:29:17;28.80;43.10
1367;DHT22;16877;48.810;9.282;2023-07-08T07:31:47;29.00;43.20
1367;DHT22;16877;48.810;9.282;2023-07-08T07:34:14;29.10;43.10
1367;DHT22;16877;48.810;9.282;2023-07-08T07:36:41;29.00;43.40
1367;DHT22;16877;48.810;9.282;2023-07-08T07:39:10;28.90;43.60
1367;DHT22;16877;48.810;9.282;2023-07-08T07:41:38;28.50;43.40
1367;DHT22;16877;48.810;9.282;2023-07-08T07:44:09;28.50;44.10
1367;DHT22;16877;48.810;9.282;2023-07-08T07:46:41;28.70;44.00
1367;DHT22;16877;48.810;9.282;2023-07-08T07:49:09;28.90;43.90
1367;DHT22;16877;48.810;9.282;2023-07-08T07:51:36;28.60;43.50
1367;DHT22;16877;48.810;9.282;2023-07-08T07:54:04;29.10;43.80
1367;DHT22;16877;48.810;9.282;2023-07-08T07:56:33;29.20;43.70
1367;DHT22;16877;48.810;9.282;2023-07-08T07:59:01;29.20;43.80
1367;DHT22;16877;48.810;9.282;2023-07-08T08:01:29;28.90;44.10
1367;DHT22;16877;48.810;9.282;2023-07-08T08:04:00;29.30;44.20
1367;DHT22;16877;48.810;9.282;2023-07-08T08:06:28;29.40;43.90
1367;DHT22;16877;48.810;9.282;2023-07-08T08:08:55;29.40;44.00
1367;DHT22;16877;48.810;9.282;2023-07-08T08:11:23;29.90;43.90
1367;DHT22;16877;48.810;9.282;2023-07-08T08:13:52;30.00;43.60
1367;DHT22;16877;48.810;9.282;2023-07-08T08:16:19;30.30;43.30
1367;DHT22;16877;48.810;9.282;2023-07-08T08:18:49;30.60;42.70
1367;DHT22;16877;48.810;9.282;2023-07-08T08:21:31;30.80;42.20
1367;DHT22;16877;48.810;9.282;2023-07-08T08:23:59;31.10;42.00
1367;DHT22;16877;48.810;9.282;2023-07-08T08:26:27;31.40;41.90
1367;DHT22;16877;48.810;9.282;2023-07-08T08:28:56;31.70;41.70
1367;DHT22;16877;48.810;9.282;2023-07-08T08:31:23;32.00;41.30
1367;DHT22;16877;48.810;9.282;2023-07-08T08:34:06;32.30;41.00
1367;DHT22;16877;48.810;9.282;2023-07-08T08:36:37;32.30;40.50
1367;DHT22;16877;48.810;9.282;2023-07-08T08:39:07;32.60;40.70
1367;DHT22;16877;48.810;9.282;2023-07-08T08:41:37;32.90;40.30
1367;DHT22;16877;48.810;9.282;2023-07-08T08:44:08;33.20;40.10
1367;DHT22;16877;48.810;9.282;2023-07-08T08:46:40;33.40;39.50
1367;DHT22;16877;48.810;9.282;2023-07-08T08:49:21;33.40;38.90
1367;DHT22;16877;48.810;9.282;2023-07-08T08:51:51;33.60;38.40
1367;DHT22;16877;48.810;9.282;2023-07-08T08:54:19;33.60;38.00
1367;DHT22;16877;48.810;9.282;2023-07-08T08:56:55;33.50;38.20
1367;DHT22;16877;48.810;9.282;2023-07-08T08:59:36;33.20;38.20
1367;DHT22;16877;48.810;9.282;2023-07-08T09:02:23;33.00;38.90
1367;DHT22;16877;48.810;9.282;2023-07-08T09:04:51;32.90;38.50
1367;DHT22;16877;48.810;9.282;2023-07-08T09:07:21;32.90;38.50
1367;DHT22;16877;48.810;9.282;2023-07-08T09:10:09;32.80;38.90
1367;DHT22;16877;48.810;9.282;2023-07-08T09:12:41;33.10;39.10
1367;DHT22;16877;48.810;9.282;2023-07-08T09:15:14;33.20;38.80
1367;DHT22;16877;48.810;9.282;2023-07-08T09:17:42;33.10;38.60
1367;DHT22;16877;48.810;9.282;2023-07-08T09:20:19;33.40;38.90
1367;DHT22;16877;48.810;9.282;2023-07-08T09:22:52;33.90;39.30
1367;DHT22;16877;48.810;9.282;2023-07-08T09:25:25;34.10;37.90
1367;DHT22;16877;48.810;9.282;2023-07-08T09:28:09;34.20;38.30
1367;DHT22;16877;48.810;9.282;2023-07-08T09:30:38;34.10;38.20
1367;DHT22;16877;48.810;9.282;2023-07-08T09:33:08;33.20;37.40
1367;DHT22;16877;48.810;9.282;2023-07-08T09:35:40;33.60;38.20
1367;DHT22;16877;48.810;9.282;2023-07-08T09:38:08;34.00;38.20
1367;DHT22;16877;48.810;9.282;2023-07-08T09:40:35;34.00;38.10
1367;DHT22;16877;48.810;9.282;2023-07-08T09:43:16;34.10;37.40
1367;DHT22;16877;48.810;9.282;2023-07-08T09:45:50;34.00;37.50
1367;DHT22;16877;48.810;9.282;2023-07-08T09:48:21;34.60;37.40
1367;DHT22;16877;48.810;9.282;2023-07-08T09:50:51;35.00;37.10
1367;DHT22;16877;48.810;9.282;2023-07-08T09:53:19;35.10;37.00
1367;DHT22;16877;48.810;9.282;2023-07-08T09:55:49;35.30;37.00
1367;DHT22;16877;48.810;9.282;2023-07-08T09:58:21;35.70;36.20
1367;DHT22;16877;48.810;9.282;2023-07-08T10:00:55;35.30;36.20
1367;DHT22;16877;48.810;9.282;2023-07-08T10:03:24;35.20;36.20
1367;DHT22;16877;48.810;9.282;2023-07-08T10:05:54;35.30;36.10
1367;DHT22;16877;48.810;9.282;2023-07-08T10:08:25;35.20;36.80
1367;DHT22;16877;48.810;9.282;2023-07-08T10:10:58;35.30;36.50
1367;DHT22;16877;48.810;9.282;2023-07-08T10:13:34;35.80;36.70
1367;DHT22;16877;48.810;9.282;2023-07-08T10:16:15;35.90;36.70
1367;DHT22;16877;48.810;9.282;2023-07-08T10:18:43;35.30;36.60
1367;DHT22;16877;48.810;9.282;2023-07-08T10:21:36;36.10;36.70
1367;DHT22;16877;48.810;9.282;2023-07-08T10:24:17;37.10;36.30
1367;DHT22;16877;48.810;9.282;2023-07-08T10:26:56;37.40;35.70
1367;DHT22;16877;48.810;9.282;2023-07-08T10:29:30;36.70;35.50
1367;DHT22;16877;48.810;9.282;2023-07-08T10:32:14;36.20;36.00
1367;DHT22;16877;48.810;9.282;2023-07-08T10:34:50;35.30;36.40
1367;DHT22;16877;48.810;9.282;2023-07-08T10:37:25;34.20;37.40
1367;DHT22;16877;48.810;9.282;2023-07-08T10:43:06;33.50;39.00
1367;DHT22;16877;48.810;9.282;2023-07-08T10:45:48;34.10;38.50
1367;DHT22;16877;48.810;9.282;2023-07-08T10:48:29;33.60;38.50
1367;DHT22;16877;48.810;9.282;2023-07-08T10:51:11;33.70;39.00
1367;DHT22;16877;48.810;9.282;2023-07-08T10:53:55;34.20;39.20
1367;DHT22;16877;48.810;9.282;2023-07-08T10:56:31;34.80;38.40
1367;DHT22;16877;48.810;9.282;2023-07-08T10:59:12;34.50;37.70
1367;DHT22;16877;48.810;9.282;2023-07-08T11:01:49;34.20;38.10
1367;DHT22;16877;48.810;9.282;2023-07-08T11:04:39;33.90;38.00
1367;DHT22;16877;48.810;9.282;2023-07-08T11:07:19;33.70;37.80
1367;DHT22;16877;48.810;9.282;2023-07-08T11:09:53;34.80;38.10
1367;DHT22;16877;48.810;9.282;2023-07-08T11:12:35;34.90;37.00
1367;DHT22;16877;48.810;9.282;2023-07-08T11:15:18;34.80;37.20
1367;DHT22;16877;48.810;9.282;2023-07-08T11:17:50;35.10;37.00
1367;DHT22;16877;48.810;9.282;2023-07-08T11:20:24;35.40;36.70
1367;DHT22;16877;48.810;9.282;2023-07-08T11:22:56;35.90;35.90
1367;DHT22;16877;48.810;9.282;2023-07-08T11:25:27;36.00;36.00
1367;DHT22;16877;48.810;9.282;2023-07-08T11:27:57;35.70;35.60
1367;DHT22;16877;48.810;9.282;2023-07-08T11:30:30;35.30;35.60
1367;DHT22;16877;48.810;9.282;2023-07-08T11:33:00;36.30;35.70
1367;DHT22;16877;48.810;9.282;2023-07-08T11:35:36;36.80;35.30
1367;DHT22;16877;48.810;9.282;2023-07-08T11:38:08;35.10;34.60
1367;DHT22;16877;48.810;9.282;2023-07-08T11:40:50;34.30;35.90
1367;DHT22;16877;48.810;9.282;2023-07-08T11:43:19;34.90;36.60
1367;DHT22;16877;48.810;9.282;2023-07-08T11:46:05;35.30;36.30
1367;DHT22;16877;48.810;9.282;2023-07-08T11:48:39;34.80;36.30
1367;DHT22;16877;48.810;9.282;2023-07-08T11:51:18;35.20;35.80
1367;DHT22;16877;48.810;9.282;2023-07-08T11:53:47;35.90;35.50
1367;DHT22;16877;48.810;9.282;2023-07-08T11:56:20;35.80;35.20
1367;DHT22;16877;48.810;9.282;2023-07-08T11:59:04;36.10;35.10
1367;DHT22;16877;48.810;9.282;2023-07-08T12:01:37;36.70;35.00
1367;DHT22;16877;48.810;9.282;2023-07-08T12:04:20;37.30;34.50
1367;DHT22;16877;48.810;9.282;2023-07-08T12:07:06;37.40;33.90
1367;DHT22;16877;48.810;9.282;2023-07-08T12:09:37;37.40;34.20
1367;DHT22;16877;48.810;9.282;2023-07-08T12:12:27;37.70;34.40
1367;DHT22;16877;48.810;9.282;2023-07-08T12:15:01;37.90;33.80
1367;DHT22;16877;48.810;9.282;2023-07-08T12:17:32;38.40;33.80
1367;DHT22;16877;48.810;9.282;2023-07-08T12:20:23;38.60;32.90
1367;DHT22;16877;48.810;9.282;2023-07-08T12:22:52;38.90;32.80
1367;DHT22;16877;48.810;9.282;2023-07-08T12:25:22;39.30;32.80
1367;DHT22;16877;48.810;9.282;2023-07-08T12:27:50;39.80;32.40
1367;DHT22;16877;48.810;9.282;2023-07-08T12:30:18;40.00;32.00
1367;DHT22;16877;48.810;9.282;2023-07-08T12:32:45;39.80;31.00
1367;DHT22;16877;48.810;9.282;2023-07-08T12:35:25;39.50;31.20
1367;DHT22;16877;48.810;9.282;2023-07-08T12:37:57;39.30;31.50
1367;DHT22;16877;48.810;9.282;2023-07-08T12:40:25;39.50;31.50
1367;DHT22;16877;48.810;9.282;2023-07-08T12:42:54;39.80;31.70
1367;DHT22;16877;48.810;9.282;2023-07-08T12:45:23;40.10;31.60
1367;DHT22;16877;48.810;9.282;2023-07-08T12:47:51;40.60;31.40
1367;DHT22;16877;48.810;9.282;2023-07-08T12:50:25;41.00;31.00
1367;DHT22;16877;48.810;9.282;2023-07-08T12:52:56;41.10;30.60
1367;DHT22;16877;48.810;9.282;2023-07-08T12:55:24;41.30;30.30
1367;DHT22;16877;48.810;9.282;2023-07-08T12:57:52;41.60;30.30
1367;DHT22;16877;48.810;9.282;2023-07-08T13:00:24;41.80;30.30
1367;DHT22;16877;48.810;9.282;2023-07-08T13:02:56;42.30;30.20
1367;DHT22;16877;48.810;9.282;2023-07-08T13:05:26;42.50;30.10
1367;DHT22;16877;48.810;9.282;2023-07-08T13:07:58;42.60;29.80
1367;DHT22;16877;48.810;9.282;2023-07-08T13:10:29;42.00;29.50
1367;DHT22;16877;48.810;9.282;2023-07-08T13:13:00;41.90;29.40
1367;DHT22;16877;48.810;9.282;2023-07-08T13:15:33;41.70;29.50
1367;DHT22;16877;48.810;9.282;2023-07-08T13:18:16;41.60;29.50
1367;DHT22;16877;48.810;9.282;2023-07-08T13:20:48;41.70;29.60
1367;DHT22;16877;48.810;9.282;2023-07-08T13:23:19;41.50;29.70
1367;DHT22;16877;48.810;9.282;2023-07-08T13:25:48;41.70;30.00
1367;DHT22;16877;48.810;9.282;2023-07-08T13:28:17;41.80;29.40
1367;DHT22;16877;48.810;9.282;2023-07-08T13:30:53;42.00;29.10
1367;DHT22;16877;48.810;9.282;2023-07-08T13:33:21;42.20;29.10
1367;DHT22;16877;48.810;9.282;2023-07-08T13:35:50;42.00;29.00
1367;DHT22;16877;48.810;9.282;2023-07-08T13:38:21;42.00;29.30
1367;DHT22;16877;48.810;9.282;2023-07-08T13:40:53;41.60;29.60
1367;DHT22;16877;48.810;9.282;2023-07-08T13:43:23;41.60;29.90
1367;DHT22;16877;48.810;9.282;2023-07-08T13:45:52;41.70;29.80
1367;DHT22;16877;48.810;9.282;2023-07-08T13:48:36;42.00;29.50
1367;DHT22;16877;48.810;9.282;2023-07-08T13:51:14;42.00;29.10
1367;DHT22;16877;48.810;9.282;2023-07-08T13:53:47;41.70;29.30
1367;DHT22;16877;48.810;9.282;2023-07-08T13:56:19;41.60;29.80
1367;DHT22;16877;48.810;9.282;2023-07-08T13:58:52;41.70;29.80
1367;DHT22;16877;48.810;9.282;2023-07-08T14:01:22;41.60;29.50
1367;DHT22;16877;48.810;9.282;2023-07-08T14:03:52;41.40;29.60
1367;DHT22;16877;48.810;9.282;2023-07-08T14:06:22;41.20;30.00
1367;DHT22;16877;48.810;9.282;2023-07-08T14:08:54;41.20;29.50
1367;DHT22;16877;48.810;9.282;2023-07-08T14:11:24;41.30;29.60
1367;DHT22;16877;48.810;9.282;2023-07-08T14:13:52;41.20;29.70
1367;DHT22;16877;48.810;9.282;2023-07-08T14:16:25;41.00;29.20
1367;DHT22;16877;48.810;9.282;2023-07-08T14:18:54;40.60;29.60
1367;DHT22;16877;48.810;9.282;2023-07-08T14:21:27;40.90;30.00
1367;DHT22;16877;48.810;9.282;2023-07-08T14:23:56;41.10;30.00
1367;DHT22;16877;48.810;9.282;2023-07-08T14:26:40;41.60;30.10
1367;DHT22;16877;48.810;9.282;2023-07-08T14:29:08;41.70;29.40
1367;DHT22;16877;48.810;9.282;2023-07-08T14:31:35;41.40;29.60
1367;DHT22;16877;48.810;9.282;2023-07-08T14:34:06;40.90;30.00
1367;DHT22;16877;48.810;9.282;2023-07-08T14:36:34;40.90;29.90
1367;DHT22;16877;48.810;9.282;2023-07-08T14:39:11;40.80;30.20
1367;DHT22;16877;48.810;9.282;2023-07-08T14:41:38;40.80;29.90
1367;DHT22;16877;48.810;9.282;2023-07-08T14:44:20;41.20;30.20
1367;DHT22;16877;48.810;9.282;2023-07-08T14:46:47;41.80;29.90
1367;DHT22;16877;48.810;9.282;2023-07-08T14:49:17;42.00;29.70
1367;DHT22;16877;48.810;9.282;2023-07-08T14:51:47;41.80;29.40
1367;DHT22;16877;48.810;9.282;2023-07-08T14:54:31;41.20;29.90
1367;DHT22;16877;48.810;9.282;2023-07-08T14:56:59;40.50;29.90
1367;DHT22;16877;48.810;9.282;2023-07-08T14:59:29;39.70;29.90
1367;DHT22;16877;48.810;9.282;2023-07-08T15:01:58;39.80;30.20
1367;DHT22;16877;48.810;9.282;2023-07-08T15:04:26;40.00;30.30
1367;DHT22;16877;48.810;9.282;2023-07-08T15:07:00;40.30;30.00
1367;DHT22;16877;48.810;9.282;2023-07-08T15:09:28;40.90;30.40
1367;DHT22;16877;48.810;9.282;2023-07-08T15:12:12;41.00;30.00
1367;DHT22;16877;48.810;9.282;2023-07-08T15:14:40;41.00;30.00
1367;DHT22;16877;48.810;9.282;2023-07-08T15:17:13;41.30;30.10
1367;DHT22;16877;48.810;9.282;2023-07-08T15:19:44;41.10;29.90
1367;DHT22;16877;48.810;9.282;2023-07-08T15:22:12;41.20;29.90
1367;DHT22;16877;48.810;9.282;2023-07-08T15:24:39;41.20;30.00
1367;DHT22;16877;48.810;9.282;2023-07-08T15:27:12;41.40;29.80
1367;DHT22;16877;48.810;9.282;2023-07-08T15:29:41;41.40;29.70
1367;DHT22;16877;48.810;9.282;2023-07-08T15:32:11;41.40;29.80
1367;DHT22;16877;48.810;9.282;2023-07-08T15:34:42;41.70;29.80
1367;DHT22;16877;48.810;9.282;2023-07-08T15:37:09;42.10;29.60
1367;DHT22;16877;48.810;9.282;2023-07-08T15:39:37;42.50;29.40
1367;DHT22;16877;48.810;9.282;2023-07-08T15:42:21;42.80;29.20
1367;DHT22;16877;48.810;9.282;2023-07-08T15:45:12;42.80;29.20
1367;DHT22;16877;48.810;9.282;2023-07-08T15:47:42;42.70;29.20
1367;DHT22;16877;48.810;9.282;2023-07-08T15:50:21;42.80;29.10
1367;DHT22;16877;48.810;9.282;2023-07-08T15:52:52;41.90;28.90
1367;DHT22;16877;48.810;9.282;2023-07-08T15:55:24;41.50;29.20
1367;DHT22;16877;48.810;9.282;2023-07-08T15:57:56;41.30;29.40
1367;DHT22;16877;48.810;9.282;2023-07-08T16:00:26;40.70;29.50
1367;DHT22;16877;48.810;9.282;2023-07-08T16:03:00;40.90;29.70
1367;DHT22;16877;48.810;9.282;2023-07-08T16:05:43;40.80;29.80
1367;DHT22;16877;48.810;9.282;2023-07-08T16:08:26;40.50;30.00
1367;DHT22;16877;48.810;9.282;2023-07-08T16:10:55;40.60;30.00
1367;DHT22;16877;48.810;9.282;2023-07-08T16:13:27;40.90;30.10
1367;DHT22;16877;48.810;9.282;2023-07-08T16:15:55;41.10;30.00
1367;DHT22;16877;48.810;9.282;2023-07-08T16:18:25;41.10;29.90
1367;DHT22;16877;48.810;9.282;2023-07-08T16:20:53;41.00;30.10